Time;durP1;ratioP1;P1;durP2;ratioP2;P2;SDS_P1;SDS_P2;PMS_P1;PMS_P2;Temp;Humidity;BMP_temperature;BMP_pressure;BME280_temperature;BME280_humidity;BME280_pressure;Samples;Min_cycle;Max_cycle;Signal;HPM_P1;HPM_P2
2023/01/15 00:00:14;;;;;;;6.38;2.38;;;;;;;;;;4982185;28;20072;-62
2023/01/15 00:02:44;;;;;;;5.75;2.17;;;;;;;;;;4998916;28;20061;-63
2023/01/15 00:05:14;;;;;;;5.68;2.30;;;;;;;;;;5047665;28;20057;-63
2023/01/15 00:07:45;;;;;;;7.95;2.58;;;;;;;;;;5047956;28;20499;-62
2023/01/15 00:10:16;;;;;;;5.18;2.58;;;;;;;;;;5015468;28;20057;-63
2023/01/15 00:12:46;;;;;;;3.85;2.33;;;;;;;;;;5023353;28;20059;-63
2023/01/15 00:15:15;;;;;;;5.13;2.05;;;;;;;;;;5071725;28;20060;-64
2023/01/15 00:17:45;;;;;;;6.93;2.42;;;;;;;;;;5088163;28;20070;-65
2023/01/15 00:20:15;;;;;;;5.93;2.40;;;;;;;;;;5087940;28;20059;-67
2023/01/15 00:22:46;;;;;;;3.70;2.17;;;;;;;;;;5088255;28;20064;-67
2023/01/15 00:28:04;;;;;;;6.47;2.75;;;;;;;;;;5088360;28;20044;-67
2023/01/15 00:30:38;;;;;;;4.75;2.70;;;;;;;;;;5079896;28;20055;-67
2023/01/15 00:33:09;;;;;;;5.53;3.20;;;;;;;;;;5087861;28;20076;-67
2023/01/15 00:35:40;;;;;;;10.15;2.78;;;;;;;;;;5070684;28;20064;-67
2023/01/15 00:38:10;;;;;;;9.20;2.92;;;;;;;;;;5050750;28;20049;-67
2023/01/15 00:40:40;;;;;;;7.28;2.90;;;;;;;;;;5051029;28;20202;-66
2023/01/15 00:43:09;;;;;;;4.78;2.80;;;;;;;;;;5051039;28;20048;-66
2023/01/15 00:45:40;;;;;;;4.38;2.60;;;;;;;;;;5051453;28;20045;-66
2023/01/15 00:48:09;;;;;;;5.30;2.72;;;;;;;;;;4979602;28;20046;-65
2023/01/15 00:50:42;;;;;;;5.47;2.95;;;;;;;;;;5011152;28;20054;-65
2023/01/15 00:53:12;;;;;;;4.82;3.00;;;;;;;;;;4972089;28;20054;-65
2023/01/15 00:55:43;;;;;;;6.55;2.72;;;;;;;;;;4909838;28;20062;-65
2023/01/15 00:58:13;;;;;;;5.85;2.75;;;;;;;;;;4936408;28;20156;-66
2023/01/15 01:00:44;;;;;;;6.72;3.03;;;;;;;;;;4921763;28;20056;-66
2023/01/15 01:03:14;;;;;;;5.60;3.00;;;;;;;;;;4918251;29;20065;-66
2023/01/15 01:05:44;;;;;;;5.25;2.83;;;;;;;;;;4933371;29;20055;-66
2023/01/15 01:08:14;;;;;;;5.70;2.72;;;;;;;;;;4921053;28;20098;-66
2023/01/15 01:10:45;;;;;;;6.03;2.80;;;;;;;;;;4972118;28;20066;-66
2023/01/15 01:13:15;;;;;;;5.90;2.90;;;;;;;;;;4939770;28;20066;-66
2023/01/15 01:15:45;;;;;;;7.07;2.78;;;;;;;;;;4948708;28;20058;-66
2023/01/15 01:18:14;;;;;;;7.90;2.83;;;;;;;;;;4991003;28;20054;-66
2023/01/15 01:20:44;;;;;;;5.70;3.33;;;;;;;;;;4952148;28;20051;-66
2023/01/15 01:23:14;;;;;;;6.55;2.75;;;;;;;;;;4952076;28;20500;-65
2023/01/15 01:25:45;;;;;;;4.78;2.80;;;;;;;;;;4942006;28;20534;-65
2023/01/15 01:28:16;;;;;;;5.47;2.65;;;;;;;;;;4971150;28;20518;-64
2023/01/15 01:30:46;;;;;;;4.35;2.60;;;;;;;;;;4956993;28;20053;-65
2023/01/15 01:33:16;;;;;;;4.47;2.58;;;;;;;;;;5010527;28;20053;-66
2023/01/15 01:35:49;;;;;;;8.27;2.60;;;;;;;;;;5028551;28;20552;-66
2023/01/15 01:38:20;;;;;;;5.35;2.58;;;;;;;;;;5050209;28;20056;-66
2023/01/15 01:40:52;;;;;;;5.78;2.53;;;;;;;;;;5050065;28;20057;-67
2023/01/15 01:43:25;;;;;;;6.80;2.67;;;;;;;;;;5049977;28;20049;-67
2023/01/15 01:45:56;;;;;;;6.65;2.85;;;;;;;;;;5050246;28;20053;-67
2023/01/15 01:48:32;;;;;;;4.00;2.40;;;;;;;;;;4990490;28;20415;-67
2023/01/15 01:51:04;;;;;;;4.38;2.58;;;;;;;;;;4990663;28;20450;-68
2023/01/15 01:53:34;;;;;;;3.80;2.45;;;;;;;;;;4970671;28;20051;-68
2023/01/15 01:56:08;;;;;;;4.28;2.72;;;;;;;;;;4971221;28;20074;-68
2023/01/15 01:58:39;;;;;;;4.03;2.65;;;;;;;;;;4954572;28;20132;-67
2023/01/15 02:01:10;;;;;;;3.53;1.90;;;;;;;;;;4939212;28;20062;-67
2023/01/15 02:03:40;;;;;;;4.35;2.13;;;;;;;;;;4961946;28;20050;-67
2023/01/15 02:06:12;;;;;;;4.32;2.00;;;;;;;;;;4961770;28;20124;-67
2023/01/15 02:08:42;;;;;;;3.13;1.83;;;;;;;;;;4954299;28;20470;-66
2023/01/15 02:11:19;;;;;;;3.92;2.28;;;;;;;;;;4970941;28;20430;-66
2023/01/15 02:14:17;;;;;;;4.53;2.42;;;;;;;;;;4970312;28;20525;-67
2023/01/15 02:17:08;;;;;;;3.55;2.22;;;;;;;;;;4951011;28;20051;-67
2023/01/15 02:19:56;;;;;;;5.03;2.70;;;;;;;;;;4951264;28;20056;-68
2023/01/15 02:22:30;;;;;;;3.13;1.98;;;;;;;;;;4954478;28;20043;-68
2023/01/15 02:25:33;;;;;;;4.50;1.98;;;;;;;;;;4946921;28;20065;-68
2023/01/15 02:28:33;;;;;;;4.13;1.75;;;;;;;;;;4970033;28;20058;-68
2023/01/15 02:31:09;;;;;;;6.60;2.17;;;;;;;;;;4970147;28;20059;-67
2023/01/15 02:33:58;;;;;;;4.22;2.55;;;;;;;;;;4950612;29;20101;-67
2023/01/15 02:36:32;;;;;;;3.38;1.83;;;;;;;;;;4922124;28;20549;-68
2023/01/15 02:39:07;;;;;;;7.63;2.20;;;;;;;;;;4931286;29;20062;-67
2023/01/15 02:41:47;;;;;;;3.40;2.10;;;;;;;;;;4931502;29;20662;-67
2023/01/15 02:44:21;;;;;;;4.28;1.83;;;;;;;;;;4950661;29;20047;-68
2023/01/15 02:46:55;;;;;;;3.33;2.00;;;;;;;;;;4973131;28;20055;-68
2023/01/15 02:49:27;;;;;;;3.80;1.80;;;;;;;;;;4969822;28;20051;-67
2023/01/15 02:52:09;;;;;;;6.15;2.03;;;;;;;;;;4901212;29;20415;-67
2023/01/15 02:55:08;;;;;;;6.63;2.50;;;;;;;;;;4862873;29;20040;-66
2023/01/15 02:57:47;;;;;;;5.47;2.20;;;;;;;;;;4874594;29;20582;-66
2023/01/15 03:00:21;;;;;;;4.03;2.03;;;;;;;;;;4844775;29;20085;-66
2023/01/15 03:03:02;;;;;;;3.90;1.90;;;;;;;;;;4837635;29;20058;-66
2023/01/15 03:05:40;;;;;;;5.07;2.50;;;;;;;;;;4827027;29;20062;-65
2023/01/15 03:08:11;;;;;;;4.97;2.47;;;;;;;;;;4837648;29;20530;-65
2023/01/15 03:11:06;;;;;;;8.38;2.92;;;;;;;;;;4841979;29;20061;-65
2023/01/15 03:14:07;;;;;;;5.80;2.20;;;;;;;;;;4861634;29;20053;-65
2023/01/15 03:17:01;;;;;;;3.80;2.20;;;;;;;;;;4828806;29;20046;-65
2023/01/15 03:19:42;;;;;;;4.07;2.10;;;;;;;;;;4819525;29;20058;-65
2023/01/15 03:22:35;;;;;;;4.28;2.40;;;;;;;;;;4855613;29;20507;-65
2023/01/15 03:25:12;;;;;;;5.13;2.05;;;;;;;;;;4855863;29;20179;-65
2023/01/15 03:27:48;;;;;;;4.57;2.25;;;;;;;;;;4865674;29;20056;-65
2023/01/15 03:30:22;;;;;;;4.22;2.30;;;;;;;;;;4870701;29;20060;-65
2023/01/15 03:32:53;;;;;;;4.78;2.38;;;;;;;;;;4827298;29;20061;-65
2023/01/15 03:35:47;;;;;;;7.22;2.75;;;;;;;;;;4915064;29;20199;-65
2023/01/15 03:38:46;;;;;;;3.53;2.15;;;;;;;;;;4969398;28;20054;-65
2023/01/15 03:41:35;;;;;;;4.25;2.38;;;;;;;;;;4930816;29;20058;-65
2023/01/15 03:44:12;;;;;;;3.90;1.92;;;;;;;;;;4911642;29;20075;-64
2023/01/15 03:47:01;;;;;;;5.45;2.33;;;;;;;;;;4877088;29;20041;-64
2023/01/15 03:49:43;;;;;;;3.95;2.05;;;;;;;;;;4851966;29;20531;-64
2023/01/15 03:52:30;;;;;;;5.15;2.20;;;;;;;;;;4857387;29;20068;-64
2023/01/15 03:55:14;;;;;;;3.97;2.25;;;;;;;;;;4841648;29;20526;-65
2023/01/15 03:58:10;;;;;;;4.85;2.25;;;;;;;;;;4855479;29;20171;-66
2023/01/15 04:00:49;;;;;;;4.70;2.17;;;;;;;;;;4903710;29;20055;-66
2023/01/15 04:03:23;;;;;;;4.00;1.92;;;;;;;;;;4892487;29;20064;-66
2023/01/15 04:05:56;;;;;;;5.38;2.00;;;;;;;;;;4861715;29;20057;-65
2023/01/15 04:08:37;;;;;;;7.50;2.53;;;;;;;;;;4830102;29;20061;-65
2023/01/15 04:11:07;;;;;;;3.90;2.10;;;;;;;;;;4834140;29;20066;-65
2023/01/15 04:13:43;;;;;;;5.07;2.10;;;;;;;;;;4873433;29;20061;-65
2023/01/15 04:16:31;;;;;;;4.72;2.20;;;;;;;;;;4873665;29;20053;-65
2023/01/15 04:19:02;;;;;;;9.48;2.25;;;;;;;;;;4886482;29;20063;-65
2023/01/15 04:21:35;;;;;;;6.18;2.40;;;;;;;;;;4888139;29;20072;-65
2023/01/15 04:24:05;;;;;;;4.68;2.25;;;;;;;;;;4877195;29;20056;-65
2023/01/15 04:26:35;;;;;;;5.25;2.42;;;;;;;;;;4888067;29;20642;-65
2023/01/15 04:29:07;;;;;;;4.30;1.95;;;;;;;;;;4858740;29;20061;-64
2023/01/15 04:31:36;;;;;;;6.53;2.17;;;;;;;;;;4873775;29;20422;-65
2023/01/15 04:34:07;;;;;;;6.35;2.40;;;;;;;;;;4858953;29;20058;-65
2023/01/15 04:36:37;;;;;;;4.97;2.45;;;;;;;;;;4896271;29;20067;-65
2023/01/15 04:39:06;;;;;;;5.47;2.35;;;;;;;;;;4903676;29;20059;-65
2023/01/15 04:44:27;;;;;;;6.07;2.47;;;;;;;;;;4930782;29;20440;-64
2023/01/15 04:46:58;;;;;;;;;;;;;;;;;;4945409;28;20074;-65
2023/01/15 04:49:29;;;;;;;7.97;2.88;;;;;;;;;;4975762;28;19929;-64
2023/01/15 04:51:59;;;;;;;5.25;2.38;;;;;;;;;;5035495;28;20488;-64
2023/01/15 04:54:29;;;;;;;5.70;2.03;;;;;;;;;;5018048;28;20157;-64
2023/01/15 04:56:59;;;;;;;5.00;2.50;;;;;;;;;;5062757;28;20571;-65
2023/01/15 04:59:29;;;;;;;5.07;2.53;;;;;;;;;;5090928;27;20444;-64
2023/01/15 05:01:59;;;;;;;4.90;2.70;;;;;;;;;;5134765;27;20058;-65
2023/01/15 05:04:35;;;;;;;4.88;2.30;;;;;;;;;;5134523;27;20058;-65
2023/01/15 05:07:05;;;;;;;5.78;2.30;;;;;;;;;;5048991;27;20058;-64
2023/01/15 05:09:37;;;;;;;8.18;2.50;;;;;;;;;;5058000;28;20056;-64
2023/01/15 05:12:08;;;;;;;6.28;2.00;;;;;;;;;;5090792;28;20060;-64
2023/01/15 05:14:38;;;;;;;5.78;2.63;;;;;;;;;;5057874;28;20060;-65
2023/01/15 05:17:08;;;;;;;8.00;2.90;;;;;;;;;;5040660;28;20048;-65
2023/01/15 05:19:38;;;;;;;5.40;2.60;;;;;;;;;;5057710;28;20067;-65
2023/01/15 05:22:09;;;;;;;4.97;2.35;;;;;;;;;;5090354;28;20060;-65
2023/01/15 05:24:39;;;;;;;6.03;2.38;;;;;;;;;;5090651;28;20036;-65
2023/01/15 05:27:09;;;;;;;3.75;2.25;;;;;;;;;;5056933;28;20056;-65
2023/01/15 05:29:39;;;;;;;5.28;2.53;;;;;;;;;;5056558;28;20051;-65
2023/01/15 05:32:08;;;;;;;4.13;2.35;;;;;;;;;;5090483;28;20078;-65
2023/01/15 05:34:40;;;;;;;4.90;2.30;;;;;;;;;;5090610;28;20063;-64
2023/01/15 05:37:10;;;;;;;4.50;2.42;;;;;;;;;;5090071;28;20152;-65
2023/01/15 05:39:40;;;;;;;6.05;2.75;;;;;;;;;;5056654;28;20052;-64
2023/01/15 05:42:10;;;;;;;5.50;2.40;;;;;;;;;;5090467;28;20051;-64
2023/01/15 05:44:39;;;;;;;5.72;2.28;;;;;;;;;;5049934;28;20045;-64
2023/01/15 05:47:10;;;;;;;10.10;2.55;;;;;;;;;;5067992;28;20496;-64
2023/01/15 05:49:41;;;;;;;5.15;2.47;;;;;;;;;;5090235;28;20427;-64
2023/01/15 05:52:11;;;;;;;5.25;2.20;;;;;;;;;;5023763;28;20511;-64
2023/01/15 05:54:41;;;;;;;9.27;2.63;;;;;;;;;;5090084;28;20047;-64
2023/01/15 05:57:12;;;;;;;7.38;2.28;;;;;;;;;;5089864;28;20055;-64
2023/01/15 05:59:42;;;;;;;4.18;2.40;;;;;;;;;;5057135;28;20060;-64
2023/01/15 06:02:13;;;;;;;4.07;2.28;;;;;;;;;;5090042;28;20064;-63
2023/01/15 06:04:42;;;;;;;4.60;2.13;;;;;;;;;;5069438;28;20052;-64
2023/01/15 06:07:12;;;;;;;5.78;2.33;;;;;;;;;;5029468;28;20060;-64
2023/01/15 06:09:42;;;;;;;5.30;2.70;;;;;;;;;;4981229;28;20058;-64
2023/01/15 06:12:12;;;;;;;4.53;2.22;;;;;;;;;;5012719;28;20060;-64
2023/01/15 06:14:42;;;;;;;5.60;1.92;;;;;;;;;;5029657;28;20559;-64
2023/01/15 06:17:13;;;;;;;5.22;2.20;;;;;;;;;;5029358;28;20046;-65
2023/01/15 06:19:43;;;;;;;5.00;2.33;;;;;;;;;;4989949;28;20050;-64
2023/01/15 06:22:13;;;;;;;6.53;2.42;;;;;;;;;;4999272;28;20092;-64
2023/01/15 06:24:43;;;;;;;5.95;2.25;;;;;;;;;;4993621;28;20437;-64
2023/01/15 06:27:13;;;;;;;6.93;2.33;;;;;;;;;;5009563;28;20050;-64
2023/01/15 06:29:43;;;;;;;11.23;2.60;;;;;;;;;;5009330;28;20062;-64
2023/01/15 06:32:13;;;;;;;3.85;2.03;;;;;;;;;;5009586;28;20565;-64
2023/01/15 06:34:43;;;;;;;5.82;2.10;;;;;;;;;;5008354;28;20501;-64
2023/01/15 06:37:13;;;;;;;6.53;2.40;;;;;;;;;;4993540;28;20061;-64
2023/01/15 06:39:43;;;;;;;5.38;1.98;;;;;;;;;;4945558;28;20057;-63
2023/01/15 06:47:51;;;;;;;4.82;2.38;;;;;;;;;;5088972;28;20067;-64
2023/01/15 06:50:21;;;;;;;6.82;2.38;;;;;;;;;;5050415;27;20066;-64
2023/01/15 06:52:51;;;;;;;8.98;2.30;;;;;;;;;;5078765;27;20419;-64
2023/01/15 06:55:22;;;;;;;4.90;2.30;;;;;;;;;;5096065;27;20054;-64
2023/01/15 06:57:53;;;;;;;4.78;2.47;;;;;;;;;;5132143;27;20043;-65
2023/01/15 07:00:23;;;;;;;3.92;2.15;;;;;;;;;;5132521;27;20031;-64
2023/01/15 07:02:53;;;;;;;5.10;2.35;;;;;;;;;;5079082;27;20051;-64
2023/01/15 07:05:23;;;;;;;10.70;2.25;;;;;;;;;;5132250;27;20070;-64
2023/01/15 07:07:52;;;;;;;5.00;2.25;;;;;;;;;;5132012;27;20046;-64
2023/01/15 07:10:22;;;;;;;6.70;2.13;;;;;;;;;;5132058;27;20533;-64
2023/01/15 07:12:52;;;;;;;5.93;2.28;;;;;;;;;;5078991;27;20525;-64
2023/01/15 07:15:22;;;;;;;3.83;2.40;;;;;;;;;;5078982;27;20058;-63
2023/01/15 07:17:56;;;;;;;5.07;2.30;;;;;;;;;;5131797;27;20039;-64
2023/01/15 07:20:27;;;;;;;6.57;3.00;;;;;;;;;;5088352;28;20063;-64
2023/01/15 07:22:57;;;;;;;5.40;2.35;;;;;;;;;;5088426;28;20056;-64
2023/01/15 07:25:27;;;;;;;4.90;2.33;;;;;;;;;;5054791;28;20060;-64
2023/01/15 07:27:57;;;;;;;8.32;2.90;;;;;;;;;;5088358;28;20432;-64
2023/01/15 07:30:27;;;;;;;4.72;2.25;;;;;;;;;;5054736;28;20482;-64
2023/01/15 07:32:57;;;;;;;7.43;2.85;;;;;;;;;;5055370;28;20500;-64
2023/01/15 07:35:26;;;;;;;5.00;2.35;;;;;;;;;;5088621;28;20520;-63
2023/01/15 07:37:56;;;;;;;6.05;2.53;;;;;;;;;;5088487;28;20059;-64
2023/01/15 07:40:26;;;;;;;6.88;2.22;;;;;;;;;;5088613;28;20044;-63
2023/01/15 07:51:25;;;;;;;6.45;3.50;;;;;;;;;;5019262;28;20524;-64
2023/01/15 07:53:56;;;;;;;6.32;2.38;;;;;;;;;;5035913;28;20049;-64
2023/01/15 07:56:26;;;;;;;6.55;2.30;;;;;;;;;;5052324;28;20093;-63
2023/01/15 07:58:56;;;;;;;11.35;2.70;;;;;;;;;;5053207;28;20420;-64
2023/01/15 08:01:25;;;;;;;6.40;2.20;;;;;;;;;;5092353;28;20520;-65
2023/01/15 08:03:56;;;;;;;4.00;2.20;;;;;;;;;;5058510;28;20052;-64
2023/01/15 08:06:26;;;;;;;4.45;2.22;;;;;;;;;;5024824;28;20044;-64
2023/01/15 08:08:56;;;;;;;7.40;2.80;;;;;;;;;;5041906;28;20063;-64
2023/01/15 08:17:03;;;;;;;4.75;2.30;;;;;;;;;;5057660;28;20455;-64
2023/01/15 08:19:34;;;;;;;4.13;2.70;;;;;;;;;;5092248;28;20059;-64
2023/01/15 08:22:03;;;;;;;5.13;2.67;;;;;;;;;;5091966;28;20052;-64
2023/01/15 08:24:33;;;;;;;5.60;2.72;;;;;;;;;;5091966;28;20407;-64
2023/01/15 08:27:04;;;;;;;6.55;2.63;;;;;;;;;;5127590;27;20066;-64
2023/01/15 08:29:34;;;;;;;4.07;2.33;;;;;;;;;;5065296;27;20565;-64
2023/01/15 08:32:04;;;;;;;5.60;2.13;;;;;;;;;;5098866;27;20051;-64
2023/01/15 08:34:34;;;;;;;5.40;2.50;;;;;;;;;;5098670;27;20426;-64
2023/01/15 08:37:04;;;;;;;6.72;2.42;;;;;;;;;;5099326;27;20062;-63
2023/01/15 08:39:35;;;;;;;7.25;3.08;;;;;;;;;;5135020;27;20043;-63
2023/01/15 08:42:05;;;;;;;8.93;2.53;;;;;;;;;;5115237;27;20058;-64
2023/01/15 08:44:35;;;;;;;6.25;3.17;;;;;;;;;;5134898;27;20390;-64
2023/01/15 08:47:05;;;;;;;6.88;2.33;;;;;;;;;;5134796;27;20058;-64
2023/01/15 08:49:35;;;;;;;6.78;3.03;;;;;;;;;;5081560;27;20058;-64
2023/01/15 08:52:04;;;;;;;6.35;2.63;;;;;;;;;;5134584;27;20054;-64
2023/01/15 08:54:34;;;;;;;4.53;2.58;;;;;;;;;;5134820;27;20475;-63
2023/01/15 08:57:08;;;;;;;8.40;2.63;;;;;;;;;;5134003;27;20043;-64
2023/01/15 08:59:37;;;;;;;;;;;;;;;;;;5100299;27;20066;-64
2023/01/15 09:02:13;;;;;;;8.90;2.90;;;;;;;;;;5134756;27;19950;-64
2023/01/15 09:04:43;;;;;;;8.30;2.58;;;;;;;;;;5134429;27;20055;-63
2023/01/15 09:07:13;;;;;;;8.55;2.97;;;;;;;;;;5134195;27;20494;-65
2023/01/15 09:09:43;;;;;;;11.10;3.20;;;;;;;;;;5134581;27;20066;-65
2023/01/15 09:12:13;;;;;;;8.05;2.83;;;;;;;;;;5098289;27;20055;-64
2023/01/15 09:14:43;;;;;;;6.47;3.00;;;;;;;;;;5090628;28;20051;-64
2023/01/15 09:17:32;;;;;;;8.65;3.05;;;;;;;;;;5056949;28;20495;-64
2023/01/15 09:20:02;;;;;;;6.68;3.40;;;;;;;;;;5090637;28;20063;-64
2023/01/15 09:22:31;;;;;;;8.38;2.95;;;;;;;;;;5041544;28;20063;-64
2023/01/15 09:25:03;;;;;;;6.35;3.38;;;;;;;;;;5090874;28;20044;-64
2023/01/15 09:27:33;;;;;;;8.57;2.45;;;;;;;;;;5020914;28;20048;-64
2023/01/15 09:30:04;;;;;;;6.75;2.92;;;;;;;;;;5036591;28;20053;-64
2023/01/15 09:32:34;;;;;;;5.78;2.67;;;;;;;;;;5036809;28;20056;-64
2023/01/15 09:35:04;;;;;;;7.72;2.65;;;;;;;;;;5070404;28;20127;-64
2023/01/15 09:37:33;;;;;;;6.75;3.45;;;;;;;;;;5070069;28;20060;-64
2023/01/15 09:40:06;;;;;;;6.50;2.97;;;;;;;;;;5070242;28;20061;-64
2023/01/15 09:42:55;;;;;;;4.82;2.67;;;;;;;;;;5020257;28;20052;-64
2023/01/15 09:45:41;;;;;;;5.95;2.58;;;;;;;;;;5070082;28;20060;-64
2023/01/15 09:48:26;;;;;;;7.80;2.55;;;;;;;;;;5069758;28;20055;-64
2023/01/15 09:51:06;;;;;;;8.18;2.50;;;;;;;;;;5070026;28;20045;-64
2023/01/15 09:53:55;;;;;;;5.68;2.70;;;;;;;;;;5090077;28;20052;-64
2023/01/15 09:56:28;;;;;;;5.72;2.95;;;;;;;;;;5025266;28;20059;-64
2023/01/15 09:59:02;;;;;;;3.92;2.30;;;;;;;;;;5089714;28;20515;-64
2023/01/15 10:01:34;;;;;;;10.00;2.67;;;;;;;;;;5069281;28;20048;-64
2023/01/15 10:04:26;;;;;;;5.90;2.63;;;;;;;;;;5070443;28;20056;-65
2023/01/15 10:07:07;;;;;;;5.07;2.70;;;;;;;;;;5089903;28;20059;-64
2023/01/15 10:09:40;;;;;;;4.97;2.55;;;;;;;;;;5055133;28;20496;-65
2023/01/15 10:12:34;;;;;;;10.25;2.40;;;;;;;;;;5055557;28;20052;-65
2023/01/15 10:15:05;;;;;;;4.53;2.45;;;;;;;;;;5056668;28;20052;-64
2023/01/15 10:17:57;;;;;;;4.50;2.22;;;;;;;;;;5073087;28;20055;-64
2023/01/15 10:20:44;;;;;;;6.38;3.00;;;;;;;;;;5049258;28;20063;-63
2023/01/15 10:23:50;;;;;;;5.13;2.50;;;;;;;;;;5015948;28;20052;-63
2023/01/15 10:26:32;;;;;;;7.95;3.15;;;;;;;;;;5016800;28;20099;-64
2023/01/15 10:29:14;;;;;;;9.32;3.28;;;;;;;;;;5049003;28;20053;-64
2023/01/15 10:31:44;;;;;;;6.03;2.95;;;;;;;;;;5048880;28;20060;-64
2023/01/15 10:34:54;;;;;;;4.95;2.50;;;;;;;;;;5049059;28;20052;-64
2023/01/15 10:37:32;;;;;;;4.85;2.75;;;;;;;;;;4989629;28;20069;-64
2023/01/15 10:40:31;;;;;;;6.00;2.78;;;;;;;;;;4989573;28;20058;-64
2023/01/15 10:43:01;;;;;;;6.28;3.25;;;;;;;;;;4993168;28;20050;-64
2023/01/15 10:45:54;;;;;;;7.72;2.97;;;;;;;;;;4960274;28;20045;-64
2023/01/15 10:48:45;;;;;;;8.35;3.33;;;;;;;;;;5009123;28;20068;-64
2023/01/15 10:51:54;;;;;;;6.18;3.33;;;;;;;;;;4992604;28;20549;-64
2023/01/15 10:54:34;;;;;;;5.32;3.22;;;;;;;;;;4992741;28;20062;-64
2023/01/15 10:57:28;;;;;;;11.90;3.70;;;;;;;;;;4996924;28;20406;-64
2023/01/15 11:00:02;;;;;;;6.15;2.83;;;;;;;;;;4970159;28;20063;-64
2023/01/15 11:02:42;;;;;;;7.13;2.92;;;;;;;;;;4922127;28;20054;-64
2023/01/15 11:05:18;;;;;;;6.57;2.53;;;;;;;;;;4953755;28;20046;-64
2023/01/15 11:07:51;;;;;;;4.70;2.22;;;;;;;;;;4988369;28;20054;-64
2023/01/15 11:10:41;;;;;;;4.68;2.03;;;;;;;;;;5028525;28;20061;-64
2023/01/15 11:21:54;;;;;;;2.55;1.58;;;;;;;;;;4995261;28;20434;-64
2023/01/15 11:24:25;;;;;;;3.45;1.80;;;;;;;;;;5028259;28;20049;-64
2023/01/15 11:26:57;;;;;;;4.53;1.58;;;;;;;;;;5028213;28;20390;-65
2023/01/15 11:29:36;;;;;;;3.55;1.80;;;;;;;;;;4995259;28;20056;-65
2023/01/15 11:32:28;;;;;;;4.35;1.77;;;;;;;;;;5011806;28;20318;-65
2023/01/15 11:35:01;;;;;;;3.00;1.60;;;;;;;;;;5028172;28;20056;-65
2023/01/15 11:37:31;;;;;;;3.17;1.35;;;;;;;;;;5061534;28;20052;-65
2023/01/15 11:40:07;;;;;;;3.30;1.42;;;;;;;;;;5067965;28;20396;-65
2023/01/15 11:51:17;;;;;;;2.25;1.20;;;;;;;;;;5018242;28;20487;-63
2023/01/15 11:53:51;;;;;;;2.40;1.38;;;;;;;;;;5019527;28;20776;-62
2023/01/15 11:56:26;;;;;;;2.45;1.40;;;;;;;;;;5068184;28;20052;-63
2023/01/15 11:59:00;;;;;;;4.47;1.42;;;;;;;;;;5047702;28;20049;-65
2023/01/15 12:01:37;;;;;;;5.30;1.42;;;;;;;;;;5015007;28;20053;-65
2023/01/15 12:04:32;;;;;;;2.85;1.40;;;;;;;;;;5031776;28;20057;-65
2023/01/15 12:07:05;;;;;;;4.00;2.47;;;;;;;;;;5002167;28;20421;-65
2023/01/15 12:10:01;;;;;;;8.50;4.30;;;;;;;;;;5047706;28;20049;-65
2023/01/15 12:13:16;;;;;;;19.75;14.95;;;;;;;;;;5048015;28;20416;-65
2023/01/15 12:16:06;;;;;;;5.95;2.65;;;;;;;;;;4969289;28;20430;-65
2023/01/15 12:18:55;;;;;;;2.90;1.52;;;;;;;;;;4986294;28;20053;-65
2023/01/15 12:21:27;;;;;;;2.90;1.52;;;;;;;;;;4988565;28;20046;-65
2023/01/15 12:24:11;;;;;;;2.38;1.38;;;;;;;;;;4988326;28;20069;-65
2023/01/15 12:26:52;;;;;;;2.20;1.30;;;;;;;;;;4988468;28;20059;-65
2023/01/15 12:29:26;;;;;;;2.33;1.23;;;;;;;;;;4988216;28;20062;-65
2023/01/15 12:32:03;;;;;;;1.92;1.23;;;;;;;;;;4988375;28;20062;-65
2023/01/15 12:35:22;;;;;;;3.88;1.08;;;;;;;;;;4975979;28;20057;-66
2023/01/15 12:38:16;;;;;;;1.63;1.00;;;;;;;;;;4991756;28;20058;-66
2023/01/15 12:41:00;;;;;;;2.30;1.15;;;;;;;;;;4992010;28;20058;-66
2023/01/15 12:46:28;;;;;;;5.38;1.20;;;;;;;;;;4991756;28;20046;-65
2023/01/15 12:49:13;;;;;;;3.10;1.67;;;;;;;;;;4992132;28;20108;-64
2023/01/15 12:52:23;;;;;;;2.00;1.02;;;;;;;;;;4966997;28;20069;-64
2023/01/15 12:55:13;;;;;;;3.10;1.35;;;;;;;;;;5010866;28;20080;-64
2023/01/15 12:57:51;;;;;;;4.05;1.60;;;;;;;;;;4962534;28;20050;-64
2023/01/15 13:00:28;;;;;;;2.28;1.40;;;;;;;;;;5011452;28;20522;-69
2023/01/15 13:03:36;;;;;;;6.40;1.80;;;;;;;;;;5010852;28;20529;-64
2023/01/15 13:06:08;;;;;;;5.65;1.90;;;;;;;;;;4979163;28;20065;-66
2023/01/15 13:08:59;;;;;;;3.42;1.70;;;;;;;;;;5010855;28;20089;-67
2023/01/15 13:11:29;;;;;;;6.63;2.33;;;;;;;;;;5010983;28;20049;-69
2023/01/15 13:13:59;;;;;;;6.13;3.47;;;;;;;;;;4994797;28;20059;-67
2023/01/15 13:16:38;;;;;;;11.05;8.18;;;;;;;;;;5030701;28;20527;-66
2023/01/15 13:19:17;;;;;;;8.73;5.03;;;;;;;;;;4981878;28;20049;-65
2023/01/15 13:21:51;;;;;;;6.43;4.00;;;;;;;;;;4997997;28;20510;-67
2023/01/15 13:24:42;;;;;;;9.38;4.38;;;;;;;;;;5030400;28;20524;-63
2023/01/15 13:27:42;;;;;;;5.95;3.38;;;;;;;;;;4981428;28;20065;-64
2023/01/15 13:30:15;;;;;;;6.72;4.22;;;;;;;;;;5110416;28;20058;-64
2023/01/15 13:32:50;;;;;;;8.00;5.30;;;;;;;;;;5077389;28;20443;-65
2023/01/15 13:35:31;;;;;;;9.63;6.30;;;;;;;;;;5060394;28;20060;-65
2023/01/15 13:38:07;;;;;;;7.22;4.65;;;;;;;;;;5077378;28;20055;-65
2023/01/15 13:40:43;;;;;;;5.53;3.22;;;;;;;;;;5110574;28;20048;-64
2023/01/15 13:43:30;;;;;;;5.53;3.30;;;;;;;;;;5110606;28;20043;-64
2023/01/15 13:46:03;;;;;;;3.88;1.90;;;;;;;;;;5111004;28;20040;-64
2023/01/15 13:48:45;;;;;;;8.38;3.70;;;;;;;;;;5110451;28;20066;-65
2023/01/15 13:51:42;;;;;;;5.45;2.72;;;;;;;;;;5110732;28;20538;-65
2023/01/15 13:54:17;;;;;;;4.30;2.83;;;;;;;;;;5060096;28;20055;-65
2023/01/15 13:56:48;;;;;;;7.88;4.30;;;;;;;;;;5059978;28;20415;-65
2023/01/15 13:59:43;;;;;;;4.40;2.78;;;;;;;;;;5093071;28;20486;-65
2023/01/15 14:02:34;;;;;;;4.05;2.55;;;;;;;;;;5026222;28;20059;-65
2023/01/15 14:05:22;;;;;;;3.22;1.65;;;;;;;;;;5026377;28;20090;-65
2023/01/15 14:07:53;;;;;;;2.90;1.45;;;;;;;;;;5101171;28;20052;-65
2023/01/15 14:10:32;;;;;;;4.15;1.73;;;;;;;;;;5056257;28;20055;-65
2023/01/15 14:13:29;;;;;;;4.20;2.55;;;;;;;;;;5073895;28;20507;-64
2023/01/15 14:16:13;;;;;;;2.38;1.67;;;;;;;;;;5032784;28;20068;-64
2023/01/15 14:19:10;;;;;;;4.90;1.70;;;;;;;;;;5049315;28;20049;-65
2023/01/15 14:21:46;;;;;;;3.78;1.50;;;;;;;;;;5049411;28;20567;-65
2023/01/15 14:24:48;;;;;;;2.40;1.30;;;;;;;;;;5049404;28;20053;-65
2023/01/15 14:28:01;;;;;;;10.32;2.30;;;;;;;;;;5016201;28;20052;-65
2023/01/15 14:30:31;;;;;;;4.82;2.00;;;;;;;;;;5049047;28;20061;-65
2023/01/15 14:33:41;;;;;;;2.97;1.60;;;;;;;;;;5049242;28;20420;-64
2023/01/15 14:36:18;;;;;;;2.60;1.50;;;;;;;;;;5049111;28;20048;-64
2023/01/15 14:38:54;;;;;;;2.50;1.33;;;;;;;;;;4973384;28;20486;-64
2023/01/15 14:43:00;;;;;;;3.00;1.33;;;;;;;;;;4989942;28;20054;-66
2023/01/15 14:44:29;;;;;;;2.20;1.40;;;;;;;;;;4989609;28;20097;-63
2023/01/15 14:47:02;;;;;;;3.45;2.00;;;;;;;;;;4989408;28;20478;-63
2023/01/15 14:49:48;;;;;;;3.63;1.70;;;;;;;;;;4989538;28;20049;-63
2023/01/15 14:52:23;;;;;;;8.52;4.55;;;;;;;;;;4996539;28;20046;-63
2023/01/15 14:54:54;;;;;;;7.50;2.60;;;;;;;;;;4979522;28;20053;-64
2023/01/15 14:57:26;;;;;;;5.18;2.80;;;;;;;;;;5012315;28;20541;-65
2023/01/15 15:00:04;;;;;;;5.40;3.05;;;;;;;;;;5009022;28;20050;-66
2023/01/15 15:02:42;;;;;;;2.83;1.70;;;;;;;;;;5009031;28;20054;-65
2023/01/15 15:05:16;;;;;;;;;;;;;;;;;;5009563;28;20612;-65
2023/01/15 15:07:51;;;;;;;3.15;1.90;;;;;;;;;;4992079;28;19922;-65
2023/01/15 15:10:26;;;;;;;2.65;1.45;;;;;;;;;;5008794;28;20054;-65
2023/01/15 15:13:16;;;;;;;2.70;1.60;;;;;;;;;;5008831;28;20410;-64
2023/01/15 15:15:58;;;;;;;2.80;1.40;;;;;;;;;;4990986;28;20056;-64
2023/01/15 15:18:38;;;;;;;3.05;1.45;;;;;;;;;;5068613;28;20492;-64
2023/01/15 15:21:26;;;;;;;4.07;1.65;;;;;;;;;;5068317;28;20447;-63
2023/01/15 15:24:08;;;;;;;3.35;1.52;;;;;;;;;;5051325;28;20053;-64
2023/01/15 15:26:40;;;;;;;2.58;1.13;;;;;;;;;;5068631;28;20060;-65
2023/01/15 15:29:16;;;;;;;4.20;1.40;;;;;;;;;;5034668;28;20055;-65
2023/01/15 15:31:52;;;;;;;1.95;1.40;;;;;;;;;;5051816;28;20075;-64
2023/01/15 15:34:37;;;;;;;4.30;3.95;;;;;;;;;;5018555;28;20061;-64
2023/01/15 15:37:20;;;;;;;2.15;1.10;;;;;;;;;;5075305;28;20067;-64
2023/01/15 15:40:17;;;;;;;2.85;1.65;;;;;;;;;;5090900;28;20052;-64
2023/01/15 15:48:41;;;;;;;1.85;1.00;;;;;;;;;;5090846;28;20051;-64
2023/01/15 15:51:25;;;;;;;1.65;1.15;;;;;;;;;;5090783;28;20387;-64
2023/01/15 15:54:18;;;;;;;1.45;0.98;;;;;;;;;;5088716;28;20044;-64
2023/01/15 15:56:56;;;;;;;3.78;0.77;;;;;;;;;;5071668;28;20048;-64
2023/01/15 15:59:36;;;;;;;1.67;0.60;;;;;;;;;;5071588;28;20059;-67
2023/01/15 16:02:35;;;;;;;1.38;0.30;;;;;;;;;;5090767;28;20044;-66
2023/01/15 16:05:27;;;;;;;0.50;0.30;;;;;;;;;;5060337;28;20507;-66
2023/01/15 16:08:19;;;;;;;0.52;0.43;;;;;;;;;;5057964;28;20048;-67
2023/01/15 16:11:01;;;;;;;0.52;0.30;;;;;;;;;;5094858;28;20395;-68
2023/01/15 16:13:41;;;;;;;0.70;0.40;;;;;;;;;;5094787;28;20391;-65
2023/01/15 16:16:15;;;;;;;0.73;0.30;;;;;;;;;;5094757;28;20044;-66
2023/01/15 16:18:51;;;;;;;0.40;0.30;;;;;;;;;;5010783;28;20067;-66
2023/01/15 16:21:32;;;;;;;0.60;0.40;;;;;;;;;;5058765;28;20055;-66
2023/01/15 16:24:08;;;;;;;0.93;0.40;;;;;;;;;;5075541;28;20044;-66
2023/01/15 16:26:47;;;;;;;0.45;0.20;;;;;;;;;;5026467;28;20052;-67
2023/01/15 16:29:22;;;;;;;0.35;0.30;;;;;;;;;;5075061;28;20048;-66
2023/01/15 16:31:55;;;;;;;1.15;0.32;;;;;;;;;;5074732;28;20055;-66